Aérodrome :
LOGIN :

S'inscrire | Disclaimer

   EN    FR    IT 

 










Légende :    VFR   VFR Marginal   IFR   IFR Intensif   IFR Très Intensif
Visi : 
Plafond : 
>= 8 km
>= 3000ft
5 à 8 km
1000 à 3000 ft
1500m à 5 km
500 à 1000 ft
800 à 1500m
200 à 500 ft
< 800m
< 200 ft
Symboles :   Orages  Brouillard  Fortes neiges  Fortes précipitations  Vent > 20 kt
SIGMETs :   Divers  Orages  Givrage  Turbulence  Onde Orograph.  Cendres Volcan.






- Altitude de l'aérodrome : 2835 ft
- Code IATA : ISE


LTFC - Suleyman Demirel

DERNIER METAR :
  • 231820Z 05004KT 330V100 CAVOK 23/08 Q1016 RMK RWY23 VRB03KT

METARs EXPIRÉS :
  • 231750Z 34010KT 300V020 CAVOK 24/08 Q1016 RMK RWY23 32006KT 290V360
  • 231720Z 35006KT 290V040 CAVOK 24/10 Q1016 RMK RWY23 33008KT
  • 231650Z 32011KT CAVOK 25/10 Q1015 RMK RWY23 33007KT
  • 231620Z 32013KT CAVOK 25/10 Q1015
  • 231550Z 34010KT 9999 FEW035 26/10 Q1015

TAF TAF LTFC
Valide du 23 à 18h jusqu'au 24 à 18h UTC


231640Z 2318/2418 32012KT CAVOK
BECMG 2318/2320 VRB02KT
BECMG 2412/2415 FEW030 BKN100



MET'MAP, la Météo Aéronautique d'un coup d'oeil ! - Copyright ORBIFLY Décembre 2007 - Disclaimer

ORBIFLY MET'MAP TEAM :

Programmation & Développement : Alexandra Zaïnal
Sur une idée originale de : Baudouin d'Aumeries
Assistance à la programmation : Marc-Olivier Méhu
Soutien technique & logistique : Manuel Goepfert

Contact : metmap@orbifly.com




SOURCES & CREDITS :

   NOAA